Terminal Aerodrome Forecast
Issued by NWS

Home | Current Version | Previous Version | Text Only | Print | Product List | Glossary On
Versions: 1 2 3 4 5 6 7 8 9 10 11 12 13 14
880
FTUS43 KDVN 242332
TAFCID
TAF
KCID 242332Z 2500/2524 26012KT P6SM SCT080
     FM250200 29007KT P6SM SKC
     FM251600 29012G20KT P6SM FEW050=

USA.gov is the U.S. government's official web portal to all federal, state and local government web resources and services.